Time;durP1;ratioP1;P1;durP2;ratioP2;P2;SDS_P1;SDS_P2;PMS_P1;PMS_P2;Temp;Humidity;BMP_temperature;BMP_pressure;BME280_temperature;BME280_humidity;BME280_pressure;Samples;Min_cycle;Max_cycle;Signal;HPM_P1;HPM_P2
2022/07/19 00:01:21;;;;;;;1.40;1.00;;;;;;;11.03;62.83;96387.83;1644568;87;21078;-64
2022/07/19 00:03:47;;;;;;;1.13;1.00;;;;;;;11.07;62.24;96385.19;1638022;87;21111;-64
2022/07/19 00:06:14;;;;;;;1.70;1.13;;;;;;;11.05;62.99;96384.73;1637443;87;21055;-64
2022/07/19 00:08:41;;;;;;;2.43;1.00;;;;;;;11.05;62.96;96386.50;1645268;87;21046;-64
2022/07/19 00:11:08;;;;;;;1.83;1.03;;;;;;;11.01;63.09;96388.72;1637684;88;21089;-64
2022/07/19 00:13:35;;;;;;;1.50;1.10;;;;;;;10.98;62.36;96382.16;1637650;87;21157;-64
2022/07/19 00:16:02;;;;;;;1.33;0.90;;;;;;;10.99;62.24;96383.92;1644932;87;21010;-64
2022/07/19 00:18:28;;;;;;;8.90;1.80;;;;;;;10.96;63.42;96387.88;1637889;88;21063;-64
2022/07/19 00:20:55;;;;;;;5.90;1.10;;;;;;;10.95;63.41;96392.74;1637651;88;21488;-64
2022/07/19 00:23:22;;;;;;;1.73;0.87;;;;;;;10.87;63.43;96389.30;1644878;87;21030;-64
2022/07/19 00:25:49;;;;;;;1.73;1.00;;;;;;;10.86;63.80;96386.20;1637593;88;21050;-64
2022/07/19 00:28:15;;;;;;;1.97;1.00;;;;;;;10.87;64.08;96385.33;1637836;87;21030;-64
2022/07/19 00:30:42;;;;;;;1.37;0.90;;;;;;;10.84;63.61;96383.59;1644917;87;21058;-64
2022/07/19 00:33:09;;;;;;;1.20;1.10;;;;;;;10.81;63.30;96383.17;1637706;88;21051;-64
2022/07/19 00:35:38;;;;;;;1.40;1.00;;;;;;;10.81;62.87;96383.17;1637777;87;21575;-64
2022/07/19 00:38:11;;;;;;;1.57;1.00;;;;;;;10.77;63.81;96381.42;1645088;87;21504;-64
2022/07/19 00:40:40;;;;;;;1.40;0.93;;;;;;;10.69;63.73;96376.64;1637609;87;21050;-65
2022/07/19 00:43:09;;;;;;;2.00;1.03;;;;;;;10.67;64.19;96377.09;1637755;87;21047;-64
2022/07/19 00:45:37;;;;;;;1.47;1.07;;;;;;;10.68;63.51;96370.05;1644834;87;21058;-64
2022/07/19 00:48:05;;;;;;;2.97;1.10;;;;;;;10.62;63.93;96369.65;1637690;88;21087;-64
2022/07/19 00:50:32;;;;;;;1.23;0.87;;;;;;;10.54;64.69;96371.47;1637701;88;21082;-65
2022/07/19 00:53:02;;;;;;;2.10;1.00;;;;;;;10.49;65.74;96371.94;1644988;87;21504;-64
2022/07/19 00:55:32;;;;;;;1.10;0.87;;;;;;;10.48;64.42;96368.84;1637595;87;21089;-64
2022/07/19 00:58:01;;;;;;;1.80;1.00;;;;;;;10.44;64.60;96364.49;1637743;88;21063;-64
2022/07/19 01:00:32;;;;;;;2.40;1.13;;;;;;;10.39;65.94;96367.16;1644821;87;21090;-64
2022/07/19 01:03:00;;;;;;;1.40;1.03;;;;;;;10.39;65.12;96364.06;1637758;87;21466;-64
2022/07/19 01:05:28;;;;;;;2.33;1.00;;;;;;;10.36;65.55;96363.22;1637568;88;21121;-64
2022/07/19 01:07:55;;;;;;;2.37;1.03;;;;;;;10.30;65.80;96373.33;1644938;87;21025;-64
2022/07/19 01:10:21;;;;;;;1.00;0.90;;;;;;;10.35;65.23;96370.68;1637758;88;21521;-64
2022/07/19 01:12:48;;;;;;;2.67;1.40;;;;;;;10.33;64.90;96356.20;1637866;88;21065;-64
2022/07/19 01:15:19;;;;;;;0.97;0.87;;;;;;;10.29;66.22;96354.90;1644787;87;21030;-65
2022/07/19 01:17:47;;;;;;;1.90;1.03;;;;;;;10.25;66.25;96363.22;1637837;87;21026;-65
2022/07/19 01:20:14;;;;;;;2.33;1.10;;;;;;;10.22;66.01;96357.96;1637757;88;21050;-64
2022/07/19 01:22:46;;;;;;;1.83;0.80;;;;;;;10.19;66.07;96357.98;1644873;87;21034;-65
2022/07/19 01:25:13;;;;;;;1.47;0.90;;;;;;;10.24;65.75;96350.05;1637570;88;21074;-64
2022/07/19 01:27:45;;;;;;;2.77;0.90;;;;;;;10.22;66.60;96353.14;1637825;87;21124;-65
2022/07/19 01:30:16;;;;;;;1.43;1.23;;;;;;;10.29;66.51;96348.30;1610946;89;21588;-65
2022/07/19 01:32:42;;;;;;;1.23;0.90;;;;;;;10.28;66.61;96339.94;1637672;88;21058;-64
2022/07/19 01:35:09;;;;;;;2.67;1.00;;;;;;;10.33;66.03;96344.33;1644690;87;21062;-64
2022/07/19 01:37:37;;;;;;;1.40;0.93;;;;;;;10.40;65.82;96346.47;1637622;88;21422;-65
2022/07/19 01:40:07;;;;;;;1.33;1.10;;;;;;;10.45;65.87;96345.13;1637728;88;21058;-64
2022/07/19 01:42:34;;;;;;;2.00;0.90;;;;;;;10.47;65.60;96338.08;1644911;87;21547;-64
2022/07/19 01:45:01;;;;;;;1.73;0.90;;;;;;;10.43;65.88;96340.30;1644518;87;21105;-65
2022/07/19 01:47:27;;;;;;;4.97;1.00;;;;;;;10.38;65.43;96345.59;1644656;87;21141;-65
2022/07/19 01:49:54;;;;;;;4.10;0.93;;;;;;;10.32;65.61;96345.64;1644681;87;21062;-65
2022/07/19 01:52:21;;;;;;;2.33;0.90;;;;;;;10.34;65.67;96353.11;1644584;87;21134;-64
2022/07/19 01:54:48;;;;;;;1.57;1.00;;;;;;;10.30;65.88;96347.41;1645072;87;20996;-65
2022/07/19 01:57:15;;;;;;;2.40;1.27;;;;;;;10.20;66.96;96354.45;1644769;87;21038;-65
2022/07/19 01:59:42;;;;;;;1.30;1.20;;;;;;;10.12;66.24;96356.26;1638658;87;21041;-64
2022/07/19 02:02:08;;;;;;;2.50;1.30;;;;;;;10.13;65.90;96362.86;1644746;87;21081;-64
2022/07/19 02:04:35;;;;;;;1.57;0.90;;;;;;;10.22;65.64;96359.28;1644885;87;21050;-64
2022/07/19 02:07:02;;;;;;;2.30;1.83;;;;;;;10.26;65.27;96366.75;1645055;87;21034;-64
2022/07/19 02:09:29;;;;;;;1.47;1.37;;;;;;;10.17;65.65;96363.26;1644874;87;21090;-64
2022/07/19 02:11:56;;;;;;;1.47;1.00;;;;;;;10.13;66.63;96361.53;1644462;87;21125;-64
2022/07/19 02:14:23;;;;;;;3.90;1.47;;;;;;;9.97;67.29;96365.97;1645171;87;21006;-65
2022/07/19 02:16:49;;;;;;;4.20;2.90;;;;;;;9.88;67.12;96364.71;1645020;87;21062;-64
2022/07/19 02:19:16;;;;;;;2.90;1.30;;;;;;;9.83;67.09;96370.89;1644555;87;21110;-64
2022/07/19 02:21:43;;;;;;;2.20;1.07;;;;;;;9.86;67.21;96365.59;1644877;87;21090;-64
2022/07/19 02:24:09;;;;;;;1.07;0.97;;;;;;;9.83;67.71;96371.76;1644921;87;21050;-64
2022/07/19 02:26:36;;;;;;;2.23;0.93;;;;;;;9.82;67.64;96374.39;1644805;87;20999;-64
2022/07/19 02:29:03;;;;;;;2.90;0.90;;;;;;;9.76;68.19;96371.34;1644983;87;21051;-64
2022/07/19 02:31:30;;;;;;;2.17;1.13;;;;;;;9.73;69.03;96373.98;1644638;87;21058;-64
2022/07/19 02:33:57;;;;;;;2.43;1.20;;;;;;;9.72;68.24;96376.17;1644956;87;20999;-64
2022/07/19 02:36:24;;;;;;;2.73;1.30;;;;;;;9.67;68.06;96377.49;1645045;87;21103;-64
2022/07/19 02:38:51;;;;;;;1.70;1.10;;;;;;;9.64;69.40;96376.19;1617172;87;21042;-64
2022/07/19 02:41:18;;;;;;;1.20;1.00;;;;;;;9.62;68.85;96377.95;1643994;87;21058;-64
2022/07/19 02:43:45;;;;;;;1.47;1.10;;;;;;;9.58;69.39;96369.62;1620749;89;21102;-64
2022/07/19 02:46:12;;;;;;;7.07;1.63;;;;;;;9.53;68.69;96372.27;1634991;87;21062;-64
2022/07/19 02:48:39;;;;;;;3.00;2.00;;;;;;;9.49;68.96;96376.23;1637400;88;21102;-64
2022/07/19 02:51:15;;;;;;;2.27;1.27;;;;;;;9.41;68.90;96366.16;1620854;89;21039;-64
2022/07/19 02:53:40;;;;;;;2.30;1.13;;;;;;;9.48;68.33;96371.41;1634368;88;21608;-64
2022/07/19 02:56:06;;;;;;;1.43;1.00;;;;;;;9.48;70.01;96374.48;1637723;88;21039;-64
2022/07/19 02:58:33;;;;;;;1.63;1.00;;;;;;;9.52;70.21;96373.58;1620688;89;21047;-64
2022/07/19 03:01:00;;;;;;;1.93;1.07;;;;;;;9.53;69.57;96371.40;1634958;87;21086;-64
2022/07/19 03:03:46;;;;;;;2.03;1.10;;;;;;;9.54;69.02;96375.77;1637598;87;21118;-65
2022/07/19 03:06:17;;;;;;;1.20;1.10;;;;;;;9.58;70.10;96369.62;1635089;87;21054;-64
2022/07/19 03:08:45;;;;;;;3.83;1.10;;;;;;;9.55;69.88;96372.28;1635151;87;21025;-64
2022/07/19 03:11:12;;;;;;;3.40;1.20;;;;;;;9.54;69.21;96370.50;1638043;88;21513;-65
2022/07/19 03:13:38;;;;;;;1.33;1.10;;;;;;;9.59;69.14;96372.69;1635182;87;21497;-64
2022/07/19 03:16:06;;;;;;;1.50;1.00;;;;;;;9.71;68.86;96370.47;1635083;87;21075;-64
2022/07/19 03:18:33;;;;;;;2.80;1.30;;;;;;;9.71;69.14;96367.39;1637679;87;21074;-64
2022/07/19 03:21:00;;;;;;;4.27;1.20;;;;;;;9.69;68.79;96366.96;1635245;88;21046;-64
2022/07/19 03:23:33;;;;;;;1.67;1.13;;;;;;;9.67;69.12;96368.27;1635018;88;21135;-64
2022/07/19 03:26:01;;;;;;;2.42;1.07;;;;;;;9.73;69.62;96374.86;1636934;88;21076;-64
2022/07/19 03:28:27;;;;;;;2.27;1.23;;;;;;;9.85;69.23;96371.73;1635232;88;21517;-64
2022/07/19 03:30:54;;;;;;;4.23;1.50;;;;;;;9.96;68.88;96373.91;1634953;87;21168;-64
2022/07/19 03:33:21;;;;;;;2.10;1.00;;;;;;;10.09;68.36;96379.56;1637856;87;21042;-64
2022/07/19 03:35:48;;;;;;;2.03;1.00;;;;;;;10.08;68.77;96381.78;1620665;88;21062;-64
2022/07/19 03:38:16;;;;;;;2.63;1.03;;;;;;;10.07;69.14;96379.13;1635205;87;21051;-64
2022/07/19 03:40:47;;;;;;;2.70;1.47;;;;;;;10.10;69.65;96379.98;1637807;87;21030;-65
2022/07/19 03:43:15;;;;;;;1.70;1.23;;;;;;;10.16;68.74;96376.47;1637052;87;21058;-65
2022/07/19 03:45:43;;;;;;;2.50;1.20;;;;;;;10.23;69.13;96372.92;1637695;88;21074;-65
2022/07/19 03:48:10;;;;;;;1.73;1.53;;;;;;;10.23;69.10;96377.30;1610212;89;21015;-65
2022/07/19 03:50:38;;;;;;;2.10;1.10;;;;;;;10.29;69.00;96376.00;1637693;87;21046;-65
2022/07/19 03:53:05;;;;;;;1.20;1.10;;;;;;;10.37;68.07;96379.47;1645047;87;21564;-65
2022/07/19 03:55:32;;;;;;;1.43;1.30;;;;;;;10.42;69.64;96372.85;1637783;87;21049;-65
2022/07/19 03:57:59;;;;;;;5.13;1.60;;;;;;;10.38;69.31;96379.89;1637767;87;21074;-65
2022/07/19 04:00:26;;;;;;;1.43;1.23;;;;;;;10.37;69.10;96380.34;1645284;87;21073;-65
2022/07/19 04:02:53;;;;;;;2.50;1.30;;;;;;;10.47;69.31;96380.30;1637392;88;21524;-65
2022/07/19 04:05:19;;;;;;;1.63;1.20;;;;;;;10.62;68.46;96382.84;1637908;88;21075;-65
2022/07/19 04:07:46;;;;;;;5.23;1.60;;;;;;;10.80;67.59;96388.00;1644939;87;21039;-65
2022/07/19 04:10:13;;;;;;;2.83;1.30;;;;;;;10.96;67.02;96386.14;1637787;88;21083;-65
2022/07/19 04:12:40;;;;;;;1.57;1.33;;;;;;;11.12;66.67;96387.34;1637736;88;21038;-65
2022/07/19 04:15:09;;;;;;;3.40;1.40;;;;;;;11.18;66.20;96386.83;1644919;87;21065;-65
2022/07/19 04:17:36;;;;;;;2.87;1.50;;;;;;;11.30;66.44;96385.86;1637577;88;21038;-65
2022/07/19 04:20:06;;;;;;;2.37;1.30;;;;;;;11.38;66.86;96388.44;1638025;87;21047;-64
2022/07/19 04:22:33;;;;;;;6.00;1.80;;;;;;;11.45;66.46;96385.72;1645091;87;21042;-65
2022/07/19 04:25:01;;;;;;;4.23;1.30;;;;;;;11.56;66.30;96384.73;1637685;88;21047;-64
2022/07/19 04:27:30;;;;;;;1.40;1.30;;;;;;;11.69;66.29;96385.94;1638065;88;21054;-65
2022/07/19 04:29:58;;;;;;;3.60;1.27;;;;;;;11.82;65.45;96384.49;1645038;87;21038;-64
2022/07/19 04:32:24;;;;;;;3.37;1.60;;;;;;;11.93;64.29;96387.05;1637445;88;21130;-64
2022/07/19 04:34:51;;;;;;;3.33;1.40;;;;;;;12.05;64.82;96385.58;1637687;88;21062;-64
2022/07/19 04:37:20;;;;;;;5.33;1.30;;;;;;;12.19;64.76;96382.30;1644795;87;21791;-64
2022/07/19 04:39:47;;;;;;;2.57;1.30;;;;;;;12.36;64.31;96385.20;1637702;88;21477;-64
2022/07/19 04:42:13;;;;;;;3.67;1.50;;;;;;;12.51;64.17;96371.31;1637877;86;21106;-64
2022/07/19 04:44:40;;;;;;;2.83;1.30;;;;;;;12.68;63.75;96379.02;1644856;87;21106;-64
2022/07/19 04:47:07;;;;;;;2.20;1.00;;;;;;;12.80;63.33;96374.01;1637658;88;21106;-65
2022/07/19 04:49:33;;;;;;;3.00;1.20;;;;;;;12.92;62.93;96371.60;1637888;87;21038;-64
2022/07/19 04:52:01;;;;;;;2.73;1.40;;;;;;;13.05;62.75;96370.95;1645014;87;21083;-64
2022/07/19 04:54:27;;;;;;;3.53;1.40;;;;;;;13.18;62.20;96376.51;1637730;87;21098;-64
2022/07/19 04:56:54;;;;;;;2.10;1.57;;;;;;;13.33;62.16;96378.94;1638069;87;21038;-64
2022/07/19 04:59:20;;;;;;;1.82;1.25;;;;;;;13.49;61.69;96378.22;1645002;87;21373;-64
2022/07/19 05:01:47;;;;;;;3.55;1.50;;;;;;;13.62;60.72;96371.78;1637610;88;21046;-64
2022/07/19 05:04:14;;;;;;;4.62;1.57;;;;;;;13.73;61.15;96374.23;1637572;87;21146;-64
2022/07/19 05:06:42;;;;;;;3.53;1.50;;;;;;;13.90;60.93;96375.70;1644703;87;21540;-64
2022/07/19 05:09:09;;;;;;;6.33;1.62;;;;;;;14.03;60.65;96378.08;1638002;87;21067;-64
2022/07/19 05:11:36;;;;;;;2.58;1.27;;;;;;;14.18;59.84;96382.21;1637858;87;21059;-64
2022/07/19 05:14:03;;;;;;;1.52;1.35;;;;;;;14.33;59.40;96382.35;1644600;87;21058;-64
2022/07/19 05:16:30;;;;;;;4.55;1.42;;;;;;;14.44;59.13;96380.83;1637644;88;21042;-64
2022/07/19 05:18:56;;;;;;;2.30;1.35;;;;;;;14.58;59.00;96382.74;1637426;88;21027;-65
2022/07/19 05:21:23;;;;;;;3.45;1.37;;;;;;;14.72;59.15;96373.16;1644979;87;21512;-64
2022/07/19 05:23:50;;;;;;;4.87;1.85;;;;;;;14.89;58.95;96381.63;1637649;87;21524;-64
2022/07/19 05:26:17;;;;;;;6.03;1.60;;;;;;;15.02;57.91;96377.33;1637853;88;21080;-64
2022/07/19 05:28:44;;;;;;;3.27;1.25;;;;;;;15.14;57.33;96377.03;1644776;87;21054;-64
2022/07/19 05:31:10;;;;;;;4.55;1.50;;;;;;;15.23;55.38;96373.30;1637513;87;21126;-64
2022/07/19 05:33:37;;;;;;;2.65;1.40;;;;;;;15.38;56.44;96379.56;1637453;87;21059;-64
2022/07/19 05:36:05;;;;;;;3.47;1.52;;;;;;;15.55;55.75;96370.70;1645080;87;21026;-64
2022/07/19 05:38:34;;;;;;;5.33;1.45;;;;;;;15.72;55.59;96367.66;1637657;88;21548;-64
2022/07/19 05:41:01;;;;;;;4.95;1.50;;;;;;;15.91;55.07;96367.15;1637835;88;21055;-65
2022/07/19 05:43:27;;;;;;;4.17;1.50;;;;;;;16.11;54.76;96365.27;1612353;89;21093;-65
2022/07/19 05:45:54;;;;;;;4.42;1.80;;;;;;;16.28;53.24;96351.45;1615516;88;21461;-65
2022/07/19 05:48:21;;;;;;;5.65;1.57;;;;;;;16.42;53.79;96350.14;1615419;89;21038;-64
2022/07/19 05:50:47;;;;;;;2.65;1.47;;;;;;;16.62;53.98;96344.22;1615418;88;21018;-64
2022/07/19 05:53:17;;;;;;;4.25;1.60;;;;;;;16.79;53.61;96354.87;1615429;89;21027;-64
2022/07/19 05:55:43;;;;;;;3.40;1.40;;;;;;;16.96;53.29;96356.98;1615558;88;21026;-65
2022/07/19 05:58:10;;;;;;;3.95;1.42;;;;;;;17.13;53.28;96357.32;1615510;89;21026;-64
2022/07/19 06:00:36;;;;;;;2.52;1.37;;;;;;;17.34;53.30;96358.88;1615590;88;21010;-65
2022/07/19 06:03:04;;;;;;;1.35;1.20;;;;;;;17.51;52.60;96355.19;1615609;88;20994;-65
2022/07/19 06:05:30;;;;;;;2.90;1.25;;;;;;;17.68;51.86;96347.48;1616947;89;21058;-64
2022/07/19 06:07:57;;;;;;;5.70;1.42;;;;;;;17.85;51.28;96347.40;1644881;87;21021;-65
2022/07/19 06:10:23;;;;;;;4.05;1.20;;;;;;;18.02;51.50;96346.81;1612349;89;21126;-64
2022/07/19 06:12:50;;;;;;;2.85;1.10;;;;;;;18.21;51.03;96344.33;1644631;87;21026;-65
2022/07/19 06:15:17;;;;;;;3.58;1.30;;;;;;;18.38;50.71;96343.24;1647280;87;21043;-64
2022/07/19 06:17:43;;;;;;;8.58;1.37;;;;;;;18.56;50.41;96346.55;1630289;88;20986;-64
2022/07/19 06:20:11;;;;;;;2.77;1.10;;;;;;;18.72;49.12;96334.82;1644823;86;21030;-64
2022/07/19 06:22:38;;;;;;;2.55;1.20;;;;;;;19.09;48.75;96345.88;1647454;87;21525;-65
2022/07/19 06:25:06;;;;;;;2.50;1.10;;;;;;;19.09;48.75;96345.88;1644650;87;21098;-64
2022/07/19 06:27:33;;;;;;;1.60;1.30;;;;;;;19.27;48.40;96341.11;1644738;87;21457;-64
2022/07/19 06:30:00;;;;;;;3.87;1.12;;;;;;;19.46;48.16;96342.58;1647733;87;21042;-64
2022/07/19 06:32:27;;;;;;;2.80;1.30;;;;;;;19.64;48.20;96340.93;1644476;87;21034;-65
2022/07/19 06:34:54;;;;;;;5.65;1.20;;;;;;;19.82;47.82;96337.95;1618655;87;21050;-64
2022/07/19 06:37:20;;;;;;;2.33;1.20;;;;;;;19.97;47.41;96339.10;1647545;87;21484;-65
2022/07/19 06:39:47;;;;;;;2.20;1.17;;;;;;;20.18;47.01;96339.47;1644789;87;21022;-65
2022/07/19 06:42:14;;;;;;;3.80;1.05;;;;;;;20.36;46.09;96335.56;1644742;87;21528;-65
2022/07/19 06:44:41;;;;;;;1.70;1.15;;;;;;;20.55;45.13;96335.64;1611090;89;21074;-65
2022/07/19 06:47:08;;;;;;;2.47;1.25;;;;;;;20.72;42.91;96331.23;1644554;87;21497;-65
2022/07/19 06:49:35;;;;;;;1.52;1.22;;;;;;;20.88;39.78;96335.39;1649641;87;21516;-65
2022/07/19 06:52:01;;;;;;;4.80;1.35;;;;;;;21.11;40.95;96328.91;1644697;87;21075;-65
2022/07/19 06:54:28;;;;;;;2.72;1.10;;;;;;;21.27;38.14;96332.19;1644783;87;21029;-65
2022/07/19 06:56:55;;;;;;;3.47;1.25;;;;;;;21.38;37.77;96335.23;1649813;87;21513;-65
2022/07/19 06:59:22;;;;;;;1.50;1.10;;;;;;;21.52;37.01;96335.45;1644907;87;21022;-65
2022/07/19 07:01:48;;;;;;;3.67;1.55;;;;;;;21.63;36.35;96338.93;1644873;87;21086;-65
2022/07/19 07:04:15;;;;;;;2.72;1.20;;;;;;;21.75;36.21;96336.97;1649683;87;21054;-64
2022/07/19 07:06:42;;;;;;;2.20;1.27;;;;;;;21.92;35.65;96334.73;1644895;87;21020;-65
2022/07/19 07:09:09;;;;;;;2.17;1.60;;;;;;;22.08;34.02;96339.34;1644830;87;21573;-65
2022/07/19 07:11:35;;;;;;;2.60;1.25;;;;;;;22.22;34.70;96337.67;1649886;87;21022;-65
2022/07/19 07:14:02;;;;;;;2.62;1.70;;;;;;;22.37;34.71;96333.78;1644527;87;21050;-65
2022/07/19 07:16:29;;;;;;;5.58;1.20;;;;;;;22.55;35.01;96336.81;1645074;87;21071;-65
2022/07/19 07:18:56;;;;;;;2.95;1.50;;;;;;;22.72;33.96;96338.59;1649556;87;21006;-65
2022/07/19 07:21:23;;;;;;;4.10;1.27;;;;;;;22.86;33.36;96335.16;1644785;87;21547;-65
2022/07/19 07:23:49;;;;;;;2.83;1.55;;;;;;;22.98;33.63;96338.55;1644748;87;21552;-65
2022/07/19 07:26:16;;;;;;;2.40;1.22;;;;;;;23.06;33.07;96336.77;1649686;87;21058;-64
2022/07/19 07:28:43;;;;;;;2.12;1.35;;;;;;;23.16;32.85;96327.66;1644837;87;21026;-65
2022/07/19 07:31:09;;;;;;;3.20;1.50;;;;;;;23.26;33.18;96327.07;1645019;87;21026;-64
2022/07/19 07:33:36;;;;;;;3.12;1.47;;;;;;;23.43;32.65;96323.38;1649381;87;21099;-65
2022/07/19 07:36:04;;;;;;;3.98;1.40;;;;;;;23.55;30.82;96330.75;1644829;87;21082;-65
2022/07/19 07:38:31;;;;;;;3.67;1.30;;;;;;;23.65;32.83;96327.05;1645025;87;21093;-64
2022/07/19 07:40:58;;;;;;;4.95;1.40;;;;;;;23.84;32.70;96330.02;1649507;87;21113;-64
2022/07/19 07:43:24;;;;;;;2.25;1.42;;;;;;;23.91;30.82;96335.44;1642283;87;21062;-64
2022/07/19 07:45:51;;;;;;;4.35;1.40;;;;;;;23.88;30.97;96328.41;1637702;88;21078;-65
2022/07/19 07:48:18;;;;;;;1.52;1.00;;;;;;;23.88;30.54;96328.41;1644549;87;21126;-64
2022/07/19 07:50:45;;;;;;;1.95;1.30;;;;;;;24.00;30.72;96325.46;1638051;87;21019;-64
2022/07/19 07:53:12;;;;;;;2.00;1.20;;;;;;;24.12;30.59;96323.86;1638017;88;21062;-64
2022/07/19 07:55:41;;;;;;;1.55;1.22;;;;;;;24.29;31.11;96326.85;1644894;87;21054;-64
2022/07/19 07:58:10;;;;;;;4.42;1.42;;;;;;;24.41;31.55;96322.91;1637544;87;21022;-64
2022/07/19 08:00:39;;;;;;;2.77;1.25;;;;;;;24.59;31.40;96320.95;1637898;87;20979;-64
2022/07/19 08:03:06;;;;;;;4.60;1.50;;;;;;;24.80;31.00;96317.38;1645017;87;21014;-65
2022/07/19 08:05:33;;;;;;;1.70;1.22;;;;;;;24.90;30.68;96311.40;1637713;87;21532;-65
2022/07/19 08:08:02;;;;;;;1.80;1.10;;;;;;;25.04;30.57;96311.34;1637499;88;21134;-64
2022/07/19 08:10:35;;;;;;;3.83;1.12;;;;;;;25.18;30.18;96308.66;1645006;87;21090;-64
2022/07/19 08:13:02;;;;;;;2.60;1.10;;;;;;;25.32;29.65;96302.34;1637835;88;21086;-65
2022/07/19 08:15:29;;;;;;;1.47;1.10;;;;;;;25.44;29.24;96309.63;1637824;87;21528;-65
2022/07/19 08:17:56;;;;;;;3.25;1.17;;;;;;;25.50;29.03;96313.75;1644598;87;21588;-65
2022/07/19 08:20:23;;;;;;;1.77;1.10;;;;;;;25.45;29.05;96311.38;1637818;87;21082;-65
2022/07/19 08:22:49;;;;;;;2.22;1.02;;;;;;;25.55;29.50;96318.39;1637815;88;21038;-65
2022/07/19 08:25:16;;;;;;;2.65;1.20;;;;;;;25.65;28.66;96303.30;1645005;87;21074;-65
2022/07/19 08:27:44;;;;;;;1.72;1.05;;;;;;;25.64;28.23;96308.80;1637728;88;21015;-65
2022/07/19 08:30:13;;;;;;;2.85;1.10;;;;;;;25.60;28.31;96306.80;1637747;88;21070;-64
2022/07/19 08:32:40;;;;;;;1.55;1.27;;;;;;;25.77;29.44;96307.47;1644963;87;21097;-65
2022/07/19 08:35:09;;;;;;;1.40;1.15;;;;;;;25.98;29.67;96306.06;1637788;88;21046;-65
2022/07/19 08:37:36;;;;;;;2.30;1.17;;;;;;;26.00;27.51;96287.00;1637660;88;21038;-64
2022/07/19 08:40:06;;;;;;;1.30;1.07;;;;;;;26.13;27.91;96300.05;1645101;87;21050;-64
2022/07/19 08:42:33;;;;;;;2.25;1.10;;;;;;;26.30;28.07;96298.39;1637825;87;21556;-64
2022/07/19 08:45:04;;;;;;;2.60;1.10;;;;;;;26.44;27.94;96300.14;1635436;86;21083;-65
2022/07/19 08:47:31;;;;;;;1.30;0.98;;;;;;;26.55;27.36;96302.96;1638304;87;21509;-64
2022/07/19 08:49:59;;;;;;;1.10;0.98;;;;;;;26.65;26.88;96292.84;1635039;88;21050;-64
2022/07/19 08:52:26;;;;;;;2.30;0.93;;;;;;;26.60;26.46;96293.17;1635200;87;21055;-65
2022/07/19 08:54:56;;;;;;;3.12;1.00;;;;;;;26.71;26.99;96284.27;1637595;88;21039;-65
2022/07/19 09:00:11;;;;;;;2.37;1.05;;;;;;;27.06;27.13;96301.16;1635237;87;21083;-64
2022/07/19 09:02:38;;;;;;;1.17;1.00;;;;;;;27.18;26.90;96294.88;1637845;88;21030;-65
2022/07/19 09:05:10;;;;;;;3.35;1.02;;;;;;;27.19;26.40;96295.27;1634881;88;21050;-64
2022/07/19 09:07:39;;;;;;;2.62;1.10;;;;;;;27.35;27.10;96297.70;1635418;87;21010;-65
2022/07/19 09:10:19;;;;;;;2.08;1.40;;;;;;;27.49;26.40;96291.23;1637732;87;21089;-64
2022/07/19 09:13:11;;;;;;;2.80;1.10;;;;;;;27.45;26.37;96291.96;1620679;88;21465;-65
2022/07/19 09:15:44;;;;;;;1.20;1.10;;;;;;;27.57;25.67;96277.98;1635300;88;21019;-64
2022/07/19 09:18:19;;;;;;;1.32;1.17;;;;;;;27.73;26.04;96281.74;1637641;88;21968;-64
2022/07/19 09:20:50;;;;;;;1.65;1.30;;;;;;;27.91;26.23;96274.07;1620797;88;21046;-64
2022/07/19 09:23:17;;;;;;;1.72;1.17;;;;;;;28.09;26.05;96286.70;1635174;88;21038;-65
2022/07/19 09:25:48;;;;;;;2.42;1.12;;;;;;;28.08;25.70;96283.63;1637467;88;21118;-64
2022/07/19 09:28:17;;;;;;;3.52;1.50;;;;;;;28.17;25.92;96278.35;1634408;88;21544;-64
2022/07/19 09:30:47;;;;;;;2.70;1.37;;;;;;;28.33;25.32;96272.58;1635128;87;21058;-65
2022/07/19 09:33:24;;;;;;;2.17;1.15;;;;;;;28.44;24.82;96273.97;1637526;88;21508;-64
2022/07/19 09:35:56;;;;;;;1.87;1.42;;;;;;;28.47;24.49;96274.21;1620732;88;21038;-64
2022/07/19 09:38:31;;;;;;;1.47;1.20;;;;;;;28.42;24.29;96274.54;1635289;88;21034;-65
2022/07/19 09:41:15;;;;;;;5.30;1.00;;;;;;;28.58;24.79;96265.23;1637644;87;21070;-64
2022/07/19 09:44:00;;;;;;;11.78;2.35;;;;;;;28.83;25.05;96264.13;1623411;87;21090;-64
2022/07/19 09:46:36;;;;;;;1.27;1.10;;;;;;;28.90;24.55;96262.61;1637661;87;21082;-64
2022/07/19 09:49:15;;;;;;;2.12;1.25;;;;;;;29.05;24.93;96268.65;1644712;87;21049;-65
2022/07/19 09:51:46;;;;;;;1.60;1.02;;;;;;;29.07;23.65;96251.77;1637673;88;21065;-64
2022/07/19 09:54:17;;;;;;;2.12;1.30;;;;;;;29.18;23.86;96255.84;1637628;88;21100;-65
2022/07/19 09:56:45;;;;;;;4.10;1.30;;;;;;;29.19;23.90;96256.19;1645021;87;21003;-65
2022/07/19 09:59:13;;;;;;;1.87;1.20;;;;;;;29.24;23.93;96256.67;1637688;88;21038;-64
2022/07/19 10:01:40;;;;;;;2.47;1.47;;;;;;;29.40;23.59;96256.25;1637672;88;21043;-65
2022/07/19 10:04:15;;;;;;;2.12;1.22;;;;;;;29.47;23.25;96251.17;1644944;87;21089;-64
2022/07/19 10:06:43;;;;;;;1.47;1.20;;;;;;;29.46;23.37;96246.70;1637925;88;21423;-64
2022/07/19 10:09:14;;;;;;;2.00;1.15;;;;;;;29.57;23.74;96251.27;1637558;88;21058;-64
2022/07/19 10:11:41;;;;;;;2.17;1.50;;;;;;;29.76;24.17;96243.28;1610242;89;21111;-64
2022/07/19 10:14:09;;;;;;;3.87;1.30;;;;;;;29.87;23.55;96243.75;1637690;88;21030;-65
2022/07/19 10:17:11;;;;;;;1.27;1.17;;;;;;;29.86;23.30;96249.70;1644772;87;21097;-64
2022/07/19 10:19:42;;;;;;;2.72;1.40;;;;;;;29.81;23.79;96253.78;1637965;87;21043;-65
2022/07/19 10:22:24;;;;;;;2.17;1.10;;;;;;;30.11;23.43;96244.84;1637443;88;21508;-64
2022/07/19 10:25:06;;;;;;;3.98;1.40;;;;;;;30.23;23.19;96241.05;1644858;87;21098;-64
2022/07/19 10:27:40;;;;;;;2.40;1.10;;;;;;;30.19;23.19;96239.62;1610216;89;21074;-64
2022/07/19 10:30:17;;;;;;;7.67;1.85;;;;;;;30.04;22.77;96241.80;1637340;88;21098;-64
2022/07/19 10:32:49;;;;;;;2.05;1.40;;;;;;;30.17;22.77;96237.52;1610245;89;21128;-64
2022/07/19 10:35:29;;;;;;;2.33;1.30;;;;;;;30.34;22.59;96237.41;1637784;87;21018;-64
2022/07/19 10:38:08;;;;;;;2.10;1.40;;;;;;;30.23;22.47;96241.55;1610175;89;21123;-64
2022/07/19 10:40:44;;;;;;;2.40;1.30;;;;;;;30.06;22.67;96235.70;1637816;87;21014;-64
2022/07/19 10:43:14;;;;;;;2.98;1.30;;;;;;;30.04;22.79;96234.11;1610413;89;21090;-64
2022/07/19 10:46:01;;;;;;;1.77;1.20;;;;;;;29.96;22.85;96226.14;1635514;87;21066;-64
2022/07/19 10:48:50;;;;;;;3.12;1.40;;;;;;;30.06;22.97;96221.25;1623765;88;21054;-64
2022/07/19 10:51:33;;;;;;;4.00;1.30;;;;;;;30.30;22.71;96221.86;1620554;89;21026;-64
2022/07/19 10:54:05;;;;;;;2.50;1.20;;;;;;;30.32;22.58;96219.02;1635099;88;21528;-65
2022/07/19 10:56:35;;;;;;;3.12;1.30;;;;;;;30.30;22.81;96214.20;1637911;87;21077;-64
2022/07/19 10:59:11;;;;;;;5.15;1.45;;;;;;;30.50;22.62;96215.16;1620644;89;21110;-64
2022/07/19 11:01:55;;;;;;;2.85;1.35;;;;;;;30.77;23.08;96226.80;1635229;88;21027;-64
2022/07/19 11:04:32;;;;;;;2.90;1.35;;;;;;;30.90;22.20;96215.21;1607311;89;21181;-64
2022/07/19 11:07:18;;;;;;;1.98;1.50;;;;;;;31.10;21.93;96212.04;1635352;87;21007;-65
2022/07/19 11:09:52;;;;;;;2.20;1.40;;;;;;;31.04;21.61;96215.30;1637643;88;21039;-65
2022/07/19 11:12:32;;;;;;;2.15;1.10;;;;;;;31.18;22.15;96219.01;1620647;88;21516;-65
2022/07/19 11:15:03;;;;;;;3.37;1.22;;;;;;;31.19;20.85;96213.91;1635270;87;21062;-65
2022/07/19 11:17:30;;;;;;;4.37;1.20;;;;;;;31.35;21.91;96210.65;1608296;89;21075;-65
2022/07/19 11:20:10;;;;;;;3.05;1.40;;;;;;;31.51;20.99;96200.56;1634773;87;22292;-64
2022/07/19 11:22:44;;;;;;;2.05;1.40;;;;;;;31.40;21.33;96211.12;1637788;87;21066;-64
2022/07/19 11:25:14;;;;;;;2.60;1.30;;;;;;;31.42;21.18;96210.95;1635208;88;21038;-65
2022/07/19 11:27:44;;;;;;;2.10;1.17;;;;;;;31.45;21.91;96210.19;1634981;87;21030;-65
2022/07/19 11:30:13;;;;;;;4.83;1.50;;;;;;;31.66;21.49;96201.86;1637765;88;21018;-65
2022/07/19 11:32:44;;;;;;;1.37;1.27;;;;;;;31.61;21.06;96193.25;1635012;88;21051;-64
2022/07/19 11:35:14;;;;;;;4.20;1.50;;;;;;;31.43;20.48;96197.70;1634981;87;21045;-65
2022/07/19 11:37:42;;;;;;;6.60;1.60;;;;;;;30.93;21.81;96197.72;1637819;87;21091;-65
2022/07/19 11:40:11;;;;;;;3.15;1.27;;;;;;;31.06;21.84;96190.14;1595024;89;21134;-64
2022/07/19 11:42:43;;;;;;;3.22;1.40;;;;;;;31.46;22.71;96186.50;1635337;87;21062;-65
2022/07/19 11:45:20;;;;;;;2.25;1.20;;;;;;;31.51;21.88;96180.62;1640216;87;21098;-65